Time;durP1;ratioP1;P1;durP2;ratioP2;P2;SDS_P1;SDS_P2;PMS_P1;PMS_P2;Temp;Humidity;BMP_temperature;BMP_pressure;BME280_temperature;BME280_humidity;BME280_pressure;Samples;Min_cycle;Max_cycle;Signal;HPM_P1;HPM_P2
2022/10/20 00:01:23;;;;;;;11.82;6.07;;;;;;;;;;5029873;28;20064;-72
2022/10/20 00:04:08;;;;;;;15.88;7.05;;;;;;;;;;5042971;28;20079;-72
2022/10/20 00:06:54;;;;;;;11.45;6.72;;;;;;;;;;5032260;28;20029;-72
2022/10/20 00:09:39;;;;;;;11.50;7.00;;;;;;;;;;5040058;28;20023;-73
2022/10/20 00:12:24;;;;;;;22.67;7.05;;;;;;;;;;5030319;28;20029;-71
2022/10/20 00:15:09;;;;;;;14.35;6.72;;;;;;;;;;5039530;28;20056;-74
2022/10/20 00:17:55;;;;;;;13.90;7.28;;;;;;;;;;5035581;28;20159;-73
2022/10/20 00:20:40;;;;;;;11.40;6.47;;;;;;;;;;5018179;28;20541;-73
2022/10/20 00:23:25;;;;;;;11.13;5.78;;;;;;;;;;5022373;28;20076;-72
2022/10/20 00:26:12;;;;;;;13.00;6.00;;;;;;;;;;5032150;28;20399;-73
2022/10/20 00:28:57;;;;;;;10.88;5.78;;;;;;;;;;5014096;28;20021;-72
2022/10/20 00:31:43;;;;;;;19.00;7.70;;;;;;;;;;5032467;28;20040;-82
2022/10/20 00:34:28;;;;;;;15.32;6.30;;;;;;;;;;5032575;28;20117;-82
2022/10/20 00:37:13;;;;;;;9.77;6.13;;;;;;;;;;5018024;28;20039;-83
2022/10/20 00:39:58;;;;;;;15.98;5.72;;;;;;;;;;5021999;28;20098;-80
2022/10/20 00:42:44;;;;;;;18.02;7.00;;;;;;;;;;5028525;28;20021;-81
2022/10/20 00:45:29;;;;;;;12.95;5.60;;;;;;;;;;5014208;28;20044;-72
2022/10/20 00:48:17;;;;;;;17.42;7.47;;;;;;;;;;5013035;28;20037;-71
2022/10/20 00:51:02;;;;;;;16.13;6.75;;;;;;;;;;5029656;28;20064;-74
2022/10/20 00:53:50;;;;;;;11.23;6.30;;;;;;;;;;5038015;28;20025;-74
2022/10/20 00:56:38;;;;;;;19.15;7.97;;;;;;;;;;5033237;28;20036;-74
2022/10/20 00:59:28;;;;;;;11.25;6.60;;;;;;;;;;5020496;28;20028;-72
2022/10/20 01:02:14;;;;;;;10.75;6.28;;;;;;;;;;5035942;28;20044;-73
2022/10/20 01:04:59;;;;;;;15.30;7.22;;;;;;;;;;5034240;28;20114;-79
2022/10/20 01:07:44;;;;;;;11.48;6.15;;;;;;;;;;5008424;28;20128;-75
2022/10/20 01:10:34;;;;;;;10.13;5.90;;;;;;;;;;5035862;28;20052;-75
2022/10/20 01:13:38;;;;;;;11.32;7.03;;;;;;;;;;5034600;28;20075;-75
2022/10/20 01:16:42;;;;;;;11.07;6.80;;;;;;;;;;5034826;28;20029;-76
2022/10/20 01:19:46;;;;;;;13.90;6.75;;;;;;;;;;5035935;28;20344;-75
2022/10/20 01:22:31;;;;;;;10.07;6.50;;;;;;;;;;5023136;28;20118;-81
2022/10/20 01:25:29;;;;;;;10.60;6.57;;;;;;;;;;5031864;28;20024;-80
2022/10/20 01:28:18;;;;;;;12.40;6.88;;;;;;;;;;5033889;28;20399;-77
2022/10/20 01:31:10;;;;;;;10.65;6.88;;;;;;;;;;5017768;28;20487;-77
2022/10/20 01:34:01;;;;;;;12.65;6.03;;;;;;;;;;5022489;28;20040;-79
2022/10/20 01:37:07;;;;;;;16.40;7.57;;;;;;;;;;5034137;28;20033;-76
2022/10/20 01:39:55;;;;;;;11.93;7.55;;;;;;;;;;5033123;28;20032;-79
2022/10/20 01:42:41;;;;;;;12.25;7.85;;;;;;;;;;5021946;28;20028;-73
2022/10/20 01:45:28;;;;;;;15.50;8.20;;;;;;;;;;5022731;28;20689;-74
2022/10/20 01:48:15;;;;;;;11.32;6.40;;;;;;;;;;5036356;28;20037;-76
2022/10/20 01:51:01;;;;;;;12.73;7.55;;;;;;;;;;5031550;28;20033;-75
2022/10/20 01:53:47;;;;;;;11.82;6.22;;;;;;;;;;5035925;28;20549;-77
2022/10/20 01:56:42;;;;;;;13.43;6.32;;;;;;;;;;5030046;28;20056;-76
2022/10/20 01:59:34;;;;;;;12.73;7.32;;;;;;;;;;5033770;28;20111;-83
2022/10/20 02:02:27;;;;;;;11.55;7.20;;;;;;;;;;5032811;28;20035;-75
2022/10/20 02:05:13;;;;;;;10.23;6.72;;;;;;;;;;5033382;28;20075;-81
2022/10/20 02:08:10;;;;;;;13.82;8.10;;;;;;;;;;5020530;28;20021;-83
2022/10/20 02:10:57;;;;;;;15.23;7.53;;;;;;;;;;5044348;28;20028;-83
2022/10/20 02:13:43;;;;;;;16.02;7.22;;;;;;;;;;5021894;28;20025;-83
2022/10/20 02:16:31;;;;;;;13.45;7.63;;;;;;;;;;5034080;28;20479;-83
2022/10/20 02:19:18;;;;;;;17.73;7.80;;;;;;;;;;5037656;28;20059;-81
2022/10/20 02:22:04;;;;;;;13.70;6.60;;;;;;;;;;5017048;28;20340;-77
2022/10/20 02:24:49;;;;;;;13.75;6.85;;;;;;;;;;5035844;28;20039;-76
2022/10/20 02:27:36;;;;;;;13.18;6.47;;;;;;;;;;5032053;28;20033;-76
2022/10/20 02:30:21;;;;;;;13.15;7.65;;;;;;;;;;5019451;28;20441;-77
2022/10/20 02:33:07;;;;;;;12.15;7.00;;;;;;;;;;5016341;28;20462;-76
2022/10/20 02:35:56;;;;;;;10.55;6.78;;;;;;;;;;5036031;28;20033;-76
2022/10/20 02:38:42;;;;;;;13.23;7.70;;;;;;;;;;5017166;28;20108;-70
2022/10/20 02:41:28;;;;;;;12.43;7.18;;;;;;;;;;5022848;28;20098;-76
2022/10/20 02:44:13;;;;;;;11.95;7.07;;;;;;;;;;5032886;28;20037;-77
2022/10/20 02:46:59;;;;;;;13.75;7.53;;;;;;;;;;5033561;28;20422;-75
2022/10/20 02:49:44;;;;;;;12.15;7.75;;;;;;;;;;5019542;28;20036;-75
2022/10/20 02:52:29;;;;;;;12.35;7.80;;;;;;;;;;5032246;28;20037;-77
2022/10/20 02:55:14;;;;;;;12.52;7.03;;;;;;;;;;5035452;28;20490;-75
2022/10/20 02:57:59;;;;;;;12.60;7.57;;;;;;;;;;5018681;28;20050;-72
2022/10/20 03:00:45;;;;;;;11.55;7.47;;;;;;;;;;5014091;28;20024;-72
2022/10/20 03:03:30;;;;;;;13.73;8.52;;;;;;;;;;5031887;28;21985;-71
2022/10/20 03:06:15;;;;;;;11.48;8.05;;;;;;;;;;5034600;28;20033;-73
2022/10/20 03:09:01;;;;;;;13.00;8.15;;;;;;;;;;5028111;28;20029;-72
2022/10/20 03:11:46;;;;;;;13.63;7.47;;;;;;;;;;5020572;28;20029;-73
2022/10/20 03:14:31;;;;;;;14.63;7.82;;;;;;;;;;5017512;28;20036;-78
2022/10/20 03:17:16;;;;;;;13.10;7.22;;;;;;;;;;5034363;28;20051;-83
2022/10/20 03:20:03;;;;;;;20.05;7.45;;;;;;;;;;5018453;28;20199;-82
2022/10/20 03:22:48;;;;;;;13.57;7.22;;;;;;;;;;5034234;28;20036;-82
2022/10/20 03:25:33;;;;;;;12.93;7.72;;;;;;;;;;5019612;28;20374;-85
2022/10/20 03:28:18;;;;;;;14.65;7.50;;;;;;;;;;5033039;28;20041;-84
2022/10/20 03:31:04;;;;;;;15.57;7.88;;;;;;;;;;5017988;28;20029;-82
2022/10/20 03:33:49;;;;;;;15.75;7.88;;;;;;;;;;5034671;28;20029;-73
2022/10/20 03:36:34;;;;;;;14.25;7.95;;;;;;;;;;5036086;28;20441;-75
2022/10/20 03:39:20;;;;;;;14.57;7.70;;;;;;;;;;5032747;28;20068;-74
2022/10/20 03:42:05;;;;;;;12.10;7.35;;;;;;;;;;5018251;28;20112;-74
2022/10/20 03:44:50;;;;;;;12.25;7.75;;;;;;;;;;5032964;28;20418;-74
2022/10/20 03:47:36;;;;;;;13.15;7.47;;;;;;;;;;5017628;28;20050;-74
2022/10/20 03:50:21;;;;;;;14.38;7.22;;;;;;;;;;5030924;28;20119;-70
2022/10/20 03:53:07;;;;;;;13.52;8.05;;;;;;;;;;5020112;28;20102;-76
2022/10/20 03:55:52;;;;;;;15.52;7.72;;;;;;;;;;5029621;28;20021;-77
2022/10/20 03:58:38;;;;;;;15.18;7.65;;;;;;;;;;5034116;28;20041;-76
2022/10/20 04:01:25;;;;;;;12.82;7.53;;;;;;;;;;5028372;28;20084;-78
2022/10/20 04:04:11;;;;;;;11.20;7.70;;;;;;;;;;5026120;28;20043;-78
2022/10/20 04:06:56;;;;;;;13.18;7.53;;;;;;;;;;5034764;28;20262;-77
2022/10/20 04:09:41;;;;;;;13.82;8.77;;;;;;;;;;5018393;28;20572;-78
2022/10/20 04:12:27;;;;;;;19.52;7.47;;;;;;;;;;5017441;28;20044;-74
2022/10/20 04:15:12;;;;;;;13.77;8.27;;;;;;;;;;5031996;28;20041;-73
2022/10/20 04:17:58;;;;;;;15.15;8.30;;;;;;;;;;5032301;28;20091;-74
2022/10/20 04:20:43;;;;;;;14.85;8.50;;;;;;;;;;5014336;28;20084;-74
2022/10/20 04:23:28;;;;;;;19.70;9.10;;;;;;;;;;5013824;28;20325;-74
2022/10/20 04:26:14;;;;;;;14.77;7.55;;;;;;;;;;5015042;28;20429;-71
2022/10/20 04:29:00;;;;;;;17.63;8.80;;;;;;;;;;5023056;28;20029;-73
2022/10/20 04:31:45;;;;;;;13.95;8.20;;;;;;;;;;5035409;28;20052;-79
2022/10/20 04:34:30;;;;;;;15.73;7.93;;;;;;;;;;5020831;28;20028;-79
2022/10/20 04:37:15;;;;;;;12.10;7.45;;;;;;;;;;5014465;28;20040;-80
2022/10/20 04:40:00;;;;;;;14.88;8.70;;;;;;;;;;5020231;28;20033;-79
2022/10/20 04:42:46;;;;;;;11.73;7.80;;;;;;;;;;5020022;28;20033;-80
2022/10/20 04:45:31;;;;;;;13.88;8.32;;;;;;;;;;5022133;28;20500;-77
2022/10/20 04:48:16;;;;;;;13.80;8.07;;;;;;;;;;5034836;28;20536;-85
2022/10/20 04:51:03;;;;;;;13.80;8.90;;;;;;;;;;5023010;28;20041;-84
2022/10/20 04:53:48;;;;;;;14.80;8.65;;;;;;;;;;5038088;28;20105;-83
2022/10/20 04:56:33;;;;;;;16.40;10.00;;;;;;;;;;5033691;28;20069;-84
2022/10/20 04:59:18;;;;;;;13.00;8.18;;;;;;;;;;5018756;28;20438;-84
2022/10/20 05:02:04;;;;;;;18.02;9.18;;;;;;;;;;5032256;28;20512;-84
2022/10/20 05:04:49;;;;;;;13.88;8.75;;;;;;;;;;5020787;28;20029;-77
2022/10/20 05:07:34;;;;;;;14.85;9.20;;;;;;;;;;5025627;28;20352;-73
2022/10/20 05:10:19;;;;;;;13.43;8.45;;;;;;;;;;5024245;28;20102;-75
2022/10/20 05:13:05;;;;;;;15.93;10.02;;;;;;;;;;5036645;28;20519;-74
2022/10/20 05:15:51;;;;;;;15.82;9.13;;;;;;;;;;5037927;28;20035;-73
2022/10/20 05:18:36;;;;;;;16.10;9.43;;;;;;;;;;5035746;28;20121;-74
2022/10/20 05:21:23;;;;;;;14.70;8.68;;;;;;;;;;5032787;28;20033;-74
2022/10/20 05:24:12;;;;;;;15.68;9.80;;;;;;;;;;5029863;28;20489;-74
2022/10/20 05:26:58;;;;;;;15.68;9.48;;;;;;;;;;5047986;28;20037;-79
2022/10/20 05:29:43;;;;;;;13.93;8.52;;;;;;;;;;5020016;28;20414;-80
2022/10/20 05:32:28;;;;;;;16.33;8.95;;;;;;;;;;5033884;28;20033;-78
2022/10/20 05:35:13;;;;;;;12.98;8.70;;;;;;;;;;5029746;28;20044;-77
2022/10/20 05:37:59;;;;;;;19.10;9.50;;;;;;;;;;5031844;28;20032;-75
2022/10/20 05:40:44;;;;;;;15.60;9.35;;;;;;;;;;5036564;28;20390;-64
2022/10/20 05:43:29;;;;;;;18.23;10.18;;;;;;;;;;5033728;28;20483;-75
2022/10/20 05:46:15;;;;;;;18.55;9.05;;;;;;;;;;5021938;28;20045;-75
2022/10/20 05:49:01;;;;;;;17.92;9.95;;;;;;;;;;5031997;28;20029;-73
2022/10/20 05:51:46;;;;;;;19.48;10.35;;;;;;;;;;5021796;28;20040;-73
2022/10/20 05:54:31;;;;;;;17.45;10.30;;;;;;;;;;5038818;28;20391;-77
2022/10/20 05:57:17;;;;;;;14.48;9.43;;;;;;;;;;5034402;28;20029;-77
2022/10/20 06:00:03;;;;;;;27.95;12.93;;;;;;;;;;5034497;28;20028;-68
2022/10/20 06:02:48;;;;;;;15.25;9.52;;;;;;;;;;5034101;28;20495;-81
2022/10/20 06:05:33;;;;;;;21.58;10.82;;;;;;;;;;5019603;28;20124;-81
2022/10/20 06:08:18;;;;;;;17.38;9.90;;;;;;;;;;5030553;28;20494;-80
2022/10/20 06:11:05;;;;;;;17.35;10.10;;;;;;;;;;5036792;28;20029;-78
2022/10/20 06:13:51;;;;;;;16.48;11.68;;;;;;;;;;5037060;28;20060;-80
2022/10/20 06:16:36;;;;;;;16.83;10.10;;;;;;;;;;5024932;28;20163;-79
2022/10/20 06:19:22;;;;;;;21.40;12.07;;;;;;;;;;5024233;28;20053;-68
2022/10/20 06:22:07;;;;;;;17.70;9.43;;;;;;;;;;5037280;28;20025;-65
2022/10/20 06:24:53;;;;;;;14.63;9.63;;;;;;;;;;5034150;28;20065;-65
2022/10/20 06:27:38;;;;;;;15.73;10.82;;;;;;;;;;5034007;28;20091;-66
2022/10/20 06:30:23;;;;;;;15.70;9.45;;;;;;;;;;5042064;28;20033;-65
2022/10/20 06:33:11;;;;;;;15.07;10.45;;;;;;;;;;5034316;28;20032;-63
2022/10/20 06:36:02;;;;;;;19.88;10.70;;;;;;;;;;5043840;28;20032;-66
2022/10/20 06:38:47;;;;;;;18.30;9.98;;;;;;;;;;5036421;28;20031;-69
2022/10/20 06:41:33;;;;;;;16.15;9.52;;;;;;;;;;5033290;28;20056;-68
2022/10/20 06:44:19;;;;;;;20.02;10.18;;;;;;;;;;5035213;28;20037;-71
2022/10/20 06:47:08;;;;;;;20.38;10.25;;;;;;;;;;5034571;28;20033;-67
2022/10/20 06:49:54;;;;;;;17.63;9.95;;;;;;;;;;5032403;28;20411;-68
2022/10/20 06:52:39;;;;;;;15.88;9.10;;;;;;;;;;5034378;28;21255;-69
2022/10/20 06:55:24;;;;;;;19.20;10.57;;;;;;;;;;5034891;28;20029;-69
2022/10/20 06:58:09;;;;;;;17.58;9.82;;;;;;;;;;5031521;28;20116;-75
2022/10/20 07:00:58;;;;;;;16.58;10.88;;;;;;;;;;5040209;28;20108;-75
2022/10/20 07:03:44;;;;;;;20.37;10.47;;;;;;;;;;5036054;28;20025;-73
2022/10/20 07:06:31;;;;;;;16.38;10.13;;;;;;;;;;5038762;28;20115;-75
2022/10/20 07:09:17;;;;;;;18.67;10.18;;;;;;;;;;5038514;28;20060;-76
2022/10/20 07:12:02;;;;;;;22.13;11.93;;;;;;;;;;5047499;28;20047;-67
2022/10/20 07:14:48;;;;;;;19.33;11.75;;;;;;;;;;5037114;28;20025;-74
2022/10/20 07:17:33;;;;;;;17.98;9.88;;;;;;;;;;5032621;28;20087;-65
2022/10/20 07:20:18;;;;;;;17.10;10.43;;;;;;;;;;5040673;28;20458;-65
2022/10/20 07:23:03;;;;;;;17.65;10.57;;;;;;;;;;5036331;28;20032;-66
2022/10/20 07:25:48;;;;;;;18.17;10.68;;;;;;;;;;5036355;28;20033;-63
2022/10/20 07:28:34;;;;;;;15.32;9.57;;;;;;;;;;5032082;28;20035;-64
2022/10/20 07:31:30;;;;;;;17.92;9.75;;;;;;;;;;5039180;28;20037;-65
2022/10/20 07:34:16;;;;;;;19.70;10.85;;;;;;;;;;5035899;28;20025;-72
2022/10/20 07:37:01;;;;;;;19.13;11.10;;;;;;;;;;5025093;28;20119;-71
2022/10/20 07:39:46;;;;;;;19.45;11.18;;;;;;;;;;5039410;28;20386;-72
2022/10/20 07:42:32;;;;;;;19.60;10.80;;;;;;;;;;5041051;28;20036;-72
2022/10/20 07:45:17;;;;;;;17.23;10.20;;;;;;;;;;5029651;28;20131;-70
2022/10/20 07:48:03;;;;;;;19.92;9.75;;;;;;;;;;5025813;28;20416;-71
2022/10/20 07:50:48;;;;;;;16.67;9.15;;;;;;;;;;5025681;28;20128;-74
2022/10/20 07:53:35;;;;;;;17.35;11.48;;;;;;;;;;5033799;28;20037;-74
2022/10/20 07:56:20;;;;;;;19.25;9.70;;;;;;;;;;5030339;28;20029;-76
2022/10/20 07:59:07;;;;;;;23.80;10.63;;;;;;;;;;5019500;28;20040;-76
2022/10/20 08:01:52;;;;;;;13.77;8.30;;;;;;;;;;5024519;28;20029;-78
2022/10/20 08:04:40;;;;;;;17.73;9.57;;;;;;;;;;5023296;28;20371;-76
2022/10/20 08:07:26;;;;;;;20.58;10.95;;;;;;;;;;5027950;28;20033;-73
2022/10/20 08:10:11;;;;;;;15.00;8.50;;;;;;;;;;5044857;28;20128;-72
2022/10/20 08:12:56;;;;;;;14.75;9.38;;;;;;;;;;5030951;28;20029;-76
2022/10/20 08:15:41;;;;;;;37.15;11.10;;;;;;;;;;5023445;28;20234;-76
2022/10/20 08:18:27;;;;;;;13.80;9.10;;;;;;;;;;5032988;28;20039;-73
2022/10/20 08:21:13;;;;;;;13.85;8.70;;;;;;;;;;5027448;28;20033;-74
2022/10/20 08:24:00;;;;;;;14.75;8.43;;;;;;;;;;5040590;28;20029;-73
2022/10/20 08:26:45;;;;;;;16.08;8.65;;;;;;;;;;5025048;28;20029;-69
2022/10/20 08:29:30;;;;;;;16.13;8.18;;;;;;;;;;5022809;28;20037;-75
2022/10/20 08:32:16;;;;;;;16.50;9.90;;;;;;;;;;5038335;28;20053;-76
2022/10/20 08:35:01;;;;;;;14.20;8.23;;;;;;;;;;5037739;28;20130;-76
2022/10/20 08:37:47;;;;;;;15.68;9.18;;;;;;;;;;5035557;28;20040;-76
2022/10/20 08:40:34;;;;;;;14.38;7.60;;;;;;;;;;5039744;28;20036;-74
2022/10/20 08:43:20;;;;;;;14.20;8.27;;;;;;;;;;5034624;28;20415;-75
2022/10/20 08:46:05;;;;;;;11.40;7.22;;;;;;;;;;5038644;28;20037;-75
2022/10/20 08:48:51;;;;;;;12.82;7.63;;;;;;;;;;5037499;28;20021;-78
2022/10/20 08:51:37;;;;;;;12.52;6.70;;;;;;;;;;5034890;28;20033;-78
2022/10/20 08:54:22;;;;;;;13.40;7.30;;;;;;;;;;5038115;28;20029;-77
2022/10/20 08:57:34;;;;;;;14.20;7.43;;;;;;;;;;5024226;28;20058;-80
2022/10/20 09:00:20;;;;;;;16.10;7.35;;;;;;;;;;5021416;28;20364;-79
2022/10/20 09:03:16;;;;;;;14.55;6.68;;;;;;;;;;5041738;28;20383;-66
2022/10/20 09:06:05;;;;;;;10.13;6.57;;;;;;;;;;5035359;28;20025;-70
2022/10/20 09:08:51;;;;;;;10.80;6.30;;;;;;;;;;5024415;28;20029;-70
2022/10/20 09:11:39;;;;;;;9.30;5.90;;;;;;;;;;5036718;28;20033;-72
2022/10/20 09:14:24;;;;;;;10.93;5.60;;;;;;;;;;5035774;28;20036;-70
2022/10/20 09:17:16;;;;;;;9.35;4.95;;;;;;;;;;5042928;28;20049;-71
2022/10/20 09:20:03;;;;;;;8.68;5.78;;;;;;;;;;5043767;28;20111;-70
2022/10/20 09:22:48;;;;;;;12.55;5.25;;;;;;;;;;5041565;28;20102;-70
2022/10/20 09:25:33;;;;;;;9.18;5.68;;;;;;;;;;5044482;28;20045;-68
2022/10/20 09:28:21;;;;;;;10.73;5.47;;;;;;;;;;5023941;28;20029;-68
2022/10/20 09:31:25;;;;;;;10.40;5.78;;;;;;;;;;5040626;28;20036;-69
2022/10/20 09:34:21;;;;;;;9.32;5.47;;;;;;;;;;5036504;28;20383;-68
2022/10/20 09:37:06;;;;;;;12.30;5.38;;;;;;;;;;5044309;28;20063;-68
2022/10/20 09:39:53;;;;;;;9.20;5.32;;;;;;;;;;5022395;28;20033;-80
2022/10/20 09:42:42;;;;;;;13.25;4.85;;;;;;;;;;5042984;28;20119;-75
2022/10/20 09:45:29;;;;;;;10.32;5.50;;;;;;;;;;5035745;28;20061;-76
2022/10/20 09:48:23;;;;;;;11.20;5.03;;;;;;;;;;5038678;28;20044;-76
2022/10/20 09:51:13;;;;;;;13.35;4.90;;;;;;;;;;5023735;28;20205;-77
2022/10/20 09:54:01;;;;;;;10.55;4.68;;;;;;;;;;5037476;28;20039;-77
2022/10/20 09:56:48;;;;;;;9.95;5.55;;;;;;;;;;5022502;28;20040;-77
2022/10/20 09:59:39;;;;;;;9.40;5.05;;;;;;;;;;5038283;28;20044;-72
2022/10/20 10:02:26;;;;;;;12.20;4.93;;;;;;;;;;5044537;28;20548;-78
2022/10/20 10:05:20;;;;;;;9.15;4.45;;;;;;;;;;5023343;28;20043;-77
2022/10/20 10:08:11;;;;;;;10.25;5.43;;;;;;;;;;5030631;28;20038;-79
2022/10/20 10:11:02;;;;;;;8.43;4.82;;;;;;;;;;5028530;28;20163;-80
2022/10/20 10:13:51;;;;;;;6.65;4.28;;;;;;;;;;5037388;28;20572;-76
2022/10/20 10:16:40;;;;;;;11.20;5.10;;;;;;;;;;5039674;28;20036;-76
2022/10/20 10:19:26;;;;;;;;;;;;;;;;;;5036398;28;20068;-76
2022/10/20 10:22:11;;;;;;;9.90;5.03;;;;;;;;;;5025314;28;19913;-77
2022/10/20 10:24:56;;;;;;;7.47;4.43;;;;;;;;;;5045361;28;20021;-75
2022/10/20 10:27:55;;;;;;;10.52;4.57;;;;;;;;;;5027654;28;20037;-74
2022/10/20 10:30:41;;;;;;;10.27;4.50;;;;;;;;;;5033878;28;20025;-75
2022/10/20 10:33:27;;;;;;;7.97;4.05;;;;;;;;;;5029040;28;20056;-75
2022/10/20 10:36:28;;;;;;;8.18;4.13;;;;;;;;;;5042140;28;20025;-72
2022/10/20 10:39:14;;;;;;;8.40;4.07;;;;;;;;;;5023044;28;20024;-72
2022/10/20 10:42:12;;;;;;;6.85;4.18;;;;;;;;;;5023366;28;20024;-70
2022/10/20 10:45:03;;;;;;;9.25;4.60;;;;;;;;;;5041507;28;20041;-72
2022/10/20 10:48:03;;;;;;;6.25;4.28;;;;;;;;;;5022102;28;20037;-69
2022/10/20 10:51:04;;;;;;;9.73;4.65;;;;;;;;;;5034354;28;20132;-71
2022/10/20 10:54:09;;;;;;;7.07;4.15;;;;;;;;;;5035211;28;20036;-79
2022/10/20 10:57:00;;;;;;;6.45;4.38;;;;;;;;;;5049515;28;20755;-79
2022/10/20 10:59:46;;;;;;;6.72;4.35;;;;;;;;;;5038757;28;20028;-79
2022/10/20 11:02:51;;;;;;;7.82;4.28;;;;;;;;;;5023898;28;20025;-80
2022/10/20 11:05:40;;;;;;;7.30;3.83;;;;;;;;;;5039008;28;20511;-80
2022/10/20 11:08:28;;;;;;;9.60;4.82;;;;;;;;;;5032769;28;20095;-78
2022/10/20 11:11:37;;;;;;;7.93;3.78;;;;;;;;;;5042420;28;20037;-64
2022/10/20 11:14:41;;;;;;;6.65;5.13;;;;;;;;;;5036887;28;20053;-68
2022/10/20 11:17:41;;;;;;;5.03;3.38;;;;;;;;;;5028790;28;20052;-79
2022/10/20 11:20:47;;;;;;;5.93;3.63;;;;;;;;;;5024334;28;20629;-80
2022/10/20 11:23:47;;;;;;;11.98;3.72;;;;;;;;;;5018743;28;20133;-79
2022/10/20 11:26:34;;;;;;;9.43;3.58;;;;;;;;;;5034324;28;20480;-77
2022/10/20 11:29:45;;;;;;;6.25;3.78;;;;;;;;;;5031980;28;20036;-79
2022/10/20 11:32:34;;;;;;;13.52;4.63;;;;;;;;;;5041300;28;20064;-74
2022/10/20 11:35:19;;;;;;;14.98;3.95;;;;;;;;;;5042727;28;20029;-65
2022/10/20 11:38:22;;;;;;;7.25;4.00;;;;;;;;;;5036172;28;20079;-65
2022/10/20 11:41:17;;;;;;;6.75;4.07;;;;;;;;;;5047562;28;20029;-65
2022/10/20 11:44:12;;;;;;;9.00;4.93;;;;;;;;;;5031594;28;20664;-63
2022/10/20 11:47:02;;;;;;;8.32;4.35;;;;;;;;;;5029723;28;20048;-64
2022/10/20 11:49:47;;;;;;;8.70;3.28;;;;;;;;;;5036882;28;20040;-76
2022/10/20 11:52:52;;;;;;;8.15;4.40;;;;;;;;;;5039108;28;20033;-68
2022/10/20 11:55:37;;;;;;;7.88;4.57;;;;;;;;;;5034701;28;20029;-71
2022/10/20 11:58:46;;;;;;;8.60;5.38;;;;;;;;;;5038340;28;20021;-67
2022/10/20 12:01:31;;;;;;;6.55;4.30;;;;;;;;;;5046677;28;20033;-68
2022/10/20 12:04:35;;;;;;;8.50;4.25;;;;;;;;;;5032002;28;20120;-68
2022/10/20 12:07:36;;;;;;;13.23;4.82;;;;;;;;;;5041523;28;20488;-73
2022/10/20 12:10:34;;;;;;;7.65;4.63;;;;;;;;;;5039196;28;20068;-74
2022/10/20 12:13:31;;;;;;;8.05;4.50;;;;;;;;;;5045839;28;20128;-73
2022/10/20 12:16:35;;;;;;;6.55;4.40;;;;;;;;;;5037734;28;20041;-76
2022/10/20 12:19:24;;;;;;;9.38;4.90;;;;;;;;;;5033800;28;20029;-76
2022/10/20 12:22:13;;;;;;;6.47;4.05;;;;;;;;;;5034736;28;20036;-76
2022/10/20 12:25:16;;;;;;;12.70;4.07;;;;;;;;;;5025293;28;20033;-74
2022/10/20 12:28:19;;;;;;;6.63;3.90;;;;;;;;;;5022466;28;20032;-71
2022/10/20 12:31:05;;;;;;;8.30;3.45;;;;;;;;;;5034229;28;20040;-71
2022/10/20 12:33:50;;;;;;;6.90;4.35;;;;;;;;;;5041450;28;20032;-71
2022/10/20 12:36:39;;;;;;;9.75;4.15;;;;;;;;;;5021765;28;20045;-73
2022/10/20 12:39:27;;;;;;;9.55;4.22;;;;;;;;;;5037678;28;20076;-72
2022/10/20 12:42:21;;;;;;;8.53;3.70;;;;;;;;;;5035280;28;20043;-71
2022/10/20 12:45:08;;;;;;;10.50;4.30;;;;;;;;;;5050452;28;20511;-68
2022/10/20 12:47:58;;;;;;;10.55;4.28;;;;;;;;;;5019025;28;20052;-73
2022/10/20 12:50:44;;;;;;;8.20;3.55;;;;;;;;;;5044187;28;20551;-71
2022/10/20 12:53:29;;;;;;;6.47;3.65;;;;;;;;;;5027122;28;20021;-71
2022/10/20 12:56:18;;;;;;;8.13;3.10;;;;;;;;;;5034845;28;20029;-71
2022/10/20 12:59:21;;;;;;;6.75;3.63;;;;;;;;;;5038621;28;20035;-72
2022/10/20 13:02:09;;;;;;;16.63;4.47;;;;;;;;;;5034963;28;20028;-65
2022/10/20 13:04:58;;;;;;;5.90;3.90;;;;;;;;;;5041106;28;20033;-76
2022/10/20 13:07:51;;;;;;;7.47;3.65;;;;;;;;;;5052489;28;20032;-77
2022/10/20 13:10:36;;;;;;;10.60;4.53;;;;;;;;;;5027104;28;20032;-78
2022/10/20 13:13:22;;;;;;;9.15;4.30;;;;;;;;;;5042927;28;20043;-76
2022/10/20 13:16:12;;;;;;;11.93;4.20;;;;;;;;;;5042623;28;20035;-76
2022/10/20 13:18:58;;;;;;;9.55;4.75;;;;;;;;;;5038272;28;20064;-78
2022/10/20 13:21:43;;;;;;;10.93;4.43;;;;;;;;;;5045148;28;20037;-69
2022/10/20 13:24:30;;;;;;;9.95;5.13;;;;;;;;;;5038240;28;20029;-66
2022/10/20 13:27:15;;;;;;;11.65;4.93;;;;;;;;;;5038979;28;20135;-66
2022/10/20 13:30:05;;;;;;;8.43;5.05;;;;;;;;;;5042268;28;20033;-66
2022/10/20 13:33:14;;;;;;;11.10;5.47;;;;;;;;;;5036386;28;20029;-67
2022/10/20 13:35:59;;;;;;;10.13;4.90;;;;;;;;;;5050070;28;20043;-66
2022/10/20 13:39:00;;;;;;;9.70;5.40;;;;;;;;;;5039487;28;20029;-73
2022/10/20 13:42:04;;;;;;;10.57;5.30;;;;;;;;;;5025336;28;20027;-66
2022/10/20 13:45:11;;;;;;;11.25;5.25;;;;;;;;;;5027461;28;20503;-66
2022/10/20 13:48:03;;;;;;;12.05;5.93;;;;;;;;;;5041522;28;20071;-64
2022/10/20 13:50:53;;;;;;;11.05;5.35;;;;;;;;;;5037239;28;20078;-66
2022/10/20 13:53:40;;;;;;;10.45;5.28;;;;;;;;;;5036260;28;20037;-65
2022/10/20 13:56:32;;;;;;;8.65;5.28;;;;;;;;;;5038273;28;20106;-65
2022/10/20 13:59:21;;;;;;;11.25;4.68;;;;;;;;;;5038271;28;20055;-69
2022/10/20 14:02:39;;;;;;;9.00;4.85;;;;;;;;;;5030613;28;20029;-74
2022/10/20 14:05:25;;;;;;;8.80;4.80;;;;;;;;;;5013214;28;20123;-74
2022/10/20 14:08:13;;;;;;;8.45;4.72;;;;;;;;;;5041224;28;20384;-73
2022/10/20 14:11:03;;;;;;;9.77;5.68;;;;;;;;;;5022954;28;20135;-75
2022/10/20 14:13:48;;;;;;;13.73;5.35;;;;;;;;;;5041042;28;20104;-74
2022/10/20 14:16:34;;;;;;;10.10;5.13;;;;;;;;;;5027957;28;20033;-68
2022/10/20 14:19:22;;;;;;;11.20;5.68;;;;;;;;;;5039611;28;20060;-70
2022/10/20 14:22:10;;;;;;;11.05;4.72;;;;;;;;;;5043375;28;20044;-70
2022/10/20 14:24:56;;;;;;;11.60;4.53;;;;;;;;;;5035534;28;20432;-70
2022/10/20 14:27:41;;;;;;;9.55;4.60;;;;;;;;;;5038637;28;20029;-69
2022/10/20 14:30:27;;;;;;;11.40;4.90;;;;;;;;;;5034004;28;20049;-71
2022/10/20 14:33:14;;;;;;;11.27;5.53;;;;;;;;;;5042003;28;20044;-71
2022/10/20 14:36:01;;;;;;;8.48;4.80;;;;;;;;;;5024356;28;20029;-66
2022/10/20 14:38:48;;;;;;;9.38;4.93;;;;;;;;;;5030051;28;20035;-64
2022/10/20 14:41:34;;;;;;;11.70;5.30;;;;;;;;;;5036502;28;20033;-62
2022/10/20 14:44:21;;;;;;;16.65;5.75;;;;;;;;;;5025098;28;20032;-63
2022/10/20 14:47:07;;;;;;;26.27;5.40;;;;;;;;;;5042303;28;20037;-65
2022/10/20 14:49:53;;;;;;;10.68;4.60;;;;;;;;;;5039286;28;20025;-63
2022/10/20 14:52:40;;;;;;;8.60;4.72;;;;;;;;;;5038686;28;20101;-65
2022/10/20 14:55:31;;;;;;;11.88;5.63;;;;;;;;;;5038947;28;20095;-78
2022/10/20 14:58:38;;;;;;;11.15;5.78;;;;;;;;;;5034228;28;20037;-74
2022/10/20 15:01:27;;;;;;;11.27;5.38;;;;;;;;;;5022755;28;20060;-74
2022/10/20 15:04:22;;;;;;;10.70;5.27;;;;;;;;;;5036025;28;20522;-76
2022/10/20 15:07:26;;;;;;;10.93;5.22;;;;;;;;;;5030772;28;20079;-76
2022/10/20 15:10:13;;;;;;;12.68;6.55;;;;;;;;;;5038068;28;20033;-76
2022/10/20 15:12:59;;;;;;;10.13;5.18;;;;;;;;;;5035391;28;20031;-75
2022/10/20 15:15:45;;;;;;;7.25;4.35;;;;;;;;;;5027142;28;20021;-74
2022/10/20 15:18:30;;;;;;;10.82;4.78;;;;;;;;;;5032599;28;20374;-77
2022/10/20 15:21:15;;;;;;;13.15;5.30;;;;;;;;;;5019056;28;20353;-75
2022/10/20 15:24:01;;;;;;;11.68;5.55;;;;;;;;;;5032624;28;20037;-75
2022/10/20 15:26:46;;;;;;;11.48;5.07;;;;;;;;;;5036145;28;20020;-75
2022/10/20 15:29:35;;;;;;;9.02;5.57;;;;;;;;;;5039320;28;20040;-75
2022/10/20 15:32:20;;;;;;;;;;;;;;;;;;5019439;28;20079;-79
2022/10/20 15:35:15;;;;;;;12.48;4.88;;;;;;;;;;5036240;28;19913;-79
2022/10/20 15:38:00;;;;;;;7.80;4.95;;;;;;;;;;5019783;28;20028;-79
2022/10/20 15:40:46;;;;;;;13.85;5.20;;;;;;;;;;5022720;28;20499;-78
2022/10/20 15:43:31;;;;;;;6.97;4.50;;;;;;;;;;5018155;28;20025;-78
2022/10/20 15:46:17;;;;;;;8.80;4.53;;;;;;;;;;5032514;28;20557;-78
2022/10/20 15:49:02;;;;;;;9.93;4.95;;;;;;;;;;5027186;28;20089;-74
2022/10/20 15:51:49;;;;;;;8.93;5.03;;;;;;;;;;5040785;28;20128;-79
2022/10/20 15:54:34;;;;;;;9.13;5.03;;;;;;;;;;5034223;28;20485;-78
2022/10/20 15:57:20;;;;;;;13.55;5.63;;;;;;;;;;5028274;28;20029;-78
2022/10/20 16:00:05;;;;;;;12.60;6.22;;;;;;;;;;5032335;28;20033;-80
2022/10/20 16:02:51;;;;;;;12.65;5.07;;;;;;;;;;5014609;28;20057;-79
2022/10/20 16:05:36;;;;;;;12.00;5.40;;;;;;;;;;5021109;28;20029;-75
2022/10/20 16:08:21;;;;;;;12.18;6.13;;;;;;;;;;5031694;28;20029;-77
2022/10/20 16:11:07;;;;;;;9.32;5.32;;;;;;;;;;5025902;28;20083;-75
2022/10/20 16:13:53;;;;;;;9.88;5.18;;;;;;;;;;5021323;28;20303;-76
2022/10/20 16:16:40;;;;;;;11.35;5.63;;;;;;;;;;5048494;28;20057;-76
2022/10/20 16:19:25;;;;;;;12.23;5.78;;;;;;;;;;5040856;28;20064;-77
2022/10/20 16:22:10;;;;;;;11.43;4.97;;;;;;;;;;5015572;28;20024;-76
2022/10/20 16:25:00;;;;;;;11.93;5.72;;;;;;;;;;5030253;28;20033;-75
2022/10/20 16:27:45;;;;;;;10.43;5.25;;;;;;;;;;5021565;28;20082;-77
2022/10/20 16:30:30;;;;;;;10.60;5.47;;;;;;;;;;5021109;28;20037;-74
2022/10/20 16:33:16;;;;;;;7.15;4.65;;;;;;;;;;5035658;28;20073;-72
2022/10/20 16:36:03;;;;;;;9.25;4.70;;;;;;;;;;5020147;28;20044;-73
2022/10/20 16:38:52;;;;;;;15.43;5.40;;;;;;;;;;5032601;28;20035;-72